createdAt,value
2022-10-22T00:02:33.455Z,96186.38
2022-10-22T00:05:30.336Z,96179.81
2022-10-22T00:08:27.291Z,96177.59
2022-10-22T00:11:24.162Z,96184.91
2022-10-22T00:14:21.015Z,96184.97
2022-10-22T00:17:18.520Z,96187.88
2022-10-22T00:20:15.907Z,96173.34
2022-10-22T00:23:12.770Z,96167.63
2022-10-22T00:26:10.864Z,96159.72
2022-10-22T00:29:07.727Z,96164.53
2022-10-22T00:32:06.405Z,96172.47
2022-10-22T00:35:04.032Z,96171.44
2022-10-22T00:38:00.886Z,96178.91
2022-10-22T00:40:57.828Z,96199.25
2022-10-22T00:44:00.739Z,96211.19
2022-10-22T00:46:57.629Z,96205.03
2022-10-22T00:49:56.216Z,96209.16
2022-10-22T00:52:54.456Z,96204.75
2022-10-22T00:55:54.433Z,96210.59
2022-10-22T00:58:59.619Z,96210.59
2022-10-22T01:01:56.514Z,96203.06
2022-10-22T01:04:53.493Z,96197.28
2022-10-22T01:07:53.334Z,96198.59
2022-10-22T01:11:39.411Z,96205.53
2022-10-22T01:15:15.249Z,96200.59
2022-10-22T01:18:14.706Z,96197.34
2022-10-22T01:21:22.598Z,96194.06
2022-10-22T01:24:56.274Z,96194.50
2022-10-22T01:27:57.358Z,96182.97
2022-10-22T01:30:59.324Z,96180.75
2022-10-22T01:33:58.489Z,96173.22
2022-10-22T01:36:57.504Z,96165.28
2022-10-22T01:39:56.089Z,96160.38
2022-10-22T01:43:01.154Z,96160.44
2022-10-22T01:46:02.411Z,96159.25
2022-10-22T01:49:36.688Z,96163.38
2022-10-22T01:52:45.823Z,96141.56
2022-10-22T01:55:56.199Z,96141.28
2022-10-22T01:59:07.405Z,96135.13
2022-10-22T02:02:28.039Z,96133.81
2022-10-22T02:05:51.656Z,96131.91
2022-10-22T02:08:51.556Z,96139.84
2022-10-22T02:11:50.461Z,96147.56
2022-10-22T02:14:50.629Z,96140.19
2022-10-22T02:17:48.386Z,96148.03
2022-10-22T02:20:45.471Z,96138.28
2022-10-22T02:23:42.449Z,96128.63
2022-10-22T02:27:12.115Z,96135.47
2022-10-22T02:33:24.419Z,96135.84
2022-10-22T02:36:23.781Z,96158.31
2022-10-22T02:39:21.819Z,96152.06
2022-10-22T02:42:18.783Z,96148.03
2022-10-22T02:45:17.959Z,96155.63
2022-10-22T02:48:14.902Z,96159.66
2022-10-22T02:51:12.402Z,96150.66
2022-10-22T02:54:09.316Z,96147.47
2022-10-22T02:57:06.304Z,96155.19
2022-10-22T03:00:05.978Z,96153.56
2022-10-22T03:03:02.936Z,96152.84
2022-10-22T03:05:59.829Z,96147.78
2022-10-22T03:08:57.605Z,96143.38
2022-10-22T03:11:54.776Z,96139.06
2022-10-22T03:14:51.661Z,96138.78
2022-10-22T03:17:48.526Z,96158.59
2022-10-22T03:20:45.416Z,96142.47
2022-10-22T03:23:43.569Z,96160.91
2022-10-22T03:26:43.146Z,96169.09
2022-10-22T03:29:40.975Z,96163.88
2022-10-22T03:32:37.832Z,96168.25
2022-10-22T03:35:44.534Z,96175.84
2022-10-22T03:38:41.788Z,96187.28
2022-10-22T03:41:38.727Z,96196.13
2022-10-22T03:44:38.251Z,96202.44
2022-10-22T03:47:36.687Z,96205.63
2022-10-22T03:50:33.513Z,96204.25
2022-10-22T03:53:30.348Z,96205.34
2022-10-22T03:56:27.320Z,96206.81
2022-10-22T03:59:24.236Z,96209.06
2022-10-22T04:02:21.636Z,96216.16
2022-10-22T04:05:18.498Z,96220.28
2022-10-22T04:08:15.326Z,96242.09
2022-10-22T04:11:14.599Z,96246.22
2022-10-22T04:14:12.201Z,96243.53
2022-10-22T04:17:09.052Z,96231.53
2022-10-22T04:20:06.659Z,96235.97
2022-10-22T04:23:03.475Z,96240.34
2022-10-22T04:26:03.147Z,96246.06
2022-10-22T04:28:59.965Z,96258.09
2022-10-22T04:31:56.856Z,96251.31
2022-10-22T04:34:53.754Z,96256.06
2022-10-22T04:37:50.614Z,96256.50
2022-10-22T04:40:47.429Z,96266.19
2022-10-22T04:43:44.898Z,96275.66
2022-10-22T04:46:41.882Z,96264.78
2022-10-22T04:49:38.731Z,96267.59
2022-10-22T04:52:35.570Z,96272.72
2022-10-22T04:55:32.511Z,96266.22
2022-10-22T04:58:29.371Z,96266.22
2022-10-22T05:01:39.912Z,96261.44
2022-10-22T05:04:39.918Z,96259.56
2022-10-22T05:07:36.772Z,96255.47
2022-10-22T05:10:33.625Z,96257.84
2022-10-22T05:13:30.449Z,96258.78
2022-10-22T05:16:29.588Z,96271.75
2022-10-22T05:19:32.123Z,96272.38
2022-10-22T05:22:28.914Z,96272.53
2022-10-22T05:25:25.791Z,96278.88
2022-10-22T05:28:22.724Z,96280.91
2022-10-22T05:31:20.413Z,96282.16
2022-10-22T05:34:17.519Z,96280.78
2022-10-22T05:37:14.589Z,96281.41
2022-10-22T05:40:26.670Z,96275.88
2022-10-22T05:43:27.460Z,96275.41
2022-10-22T05:46:28.408Z,96269.59
2022-10-22T05:49:25.239Z,96267.06
2022-10-22T05:52:22.066Z,96269.59
2022-10-22T05:55:18.970Z,96288.53
2022-10-22T05:58:15.828Z,96296.91
2022-10-22T06:01:25.812Z,96296.91
2022-10-22T06:04:22.741Z,96307.31
2022-10-22T06:07:19.591Z,96309.53
2022-10-22T06:10:20.912Z,96299.25
2022-10-22T06:13:17.712Z,96322.44
2022-10-22T06:16:15.062Z,96322.63
2022-10-22T06:19:14.520Z,96324.34
2022-10-22T06:22:11.516Z,96339.19
2022-10-22T06:25:08.985Z,96346.13
2022-10-22T06:28:05.957Z,96345.50
2022-10-22T06:31:05.106Z,96360.50
2022-10-22T06:34:02.696Z,96372.16
2022-10-22T06:37:01.950Z,96364.91
2022-10-22T06:39:58.824Z,96372.34
2022-10-22T06:42:55.640Z,96377.22
2022-10-22T06:45:52.470Z,96374.38
2022-10-22T06:48:51.041Z,96377.41
2022-10-22T06:51:55.328Z,96372.34
2022-10-22T06:54:52.221Z,96368.84
2022-10-22T06:57:49.028Z,96348.00
2022-10-22T07:00:45.871Z,96332.56
2022-10-22T07:03:42.886Z,96310.91
2022-10-22T07:06:39.812Z,96360.97
2022-10-22T07:09:36.642Z,96388.94
2022-10-22T07:12:34.223Z,96406.41
2022-10-22T07:15:31.213Z,96406.44
2022-10-22T07:18:28.075Z,96401.69
2022-10-22T07:21:26.130Z,96418.59
2022-10-22T07:24:23.294Z,96418.94
2022-10-22T07:27:20.150Z,96443.56
2022-10-22T07:30:17.097Z,96450.38
2022-10-22T07:33:14.354Z,96451.47
2022-10-22T07:36:17.588Z,96446.41
2022-10-22T07:39:14.598Z,96451.94
2022-10-22T07:42:11.434Z,96464.06
2022-10-22T07:45:08.947Z,96455.38
2022-10-22T07:48:06.408Z,96454.94
2022-10-22T07:51:04.223Z,96461.69
2022-10-22T07:54:01.103Z,96467.84
2022-10-22T07:56:59.366Z,96471.78
2022-10-22T07:59:58.108Z,96480.19
2022-10-22T08:02:54.950Z,96479.38
2022-10-22T08:05:52.738Z,96485.56
2022-10-22T08:08:49.745Z,96493.28
2022-10-22T08:11:46.981Z,96483.94
2022-10-22T08:14:43.912Z,96494.72
2022-10-22T08:17:41.039Z,96491.91
2022-10-22T08:20:38.078Z,96490.31
2022-10-22T08:23:35.338Z,96497.88
2022-10-22T08:26:32.484Z,96493.44
2022-10-22T08:29:30.188Z,96494.44
2022-10-22T08:35:28.745Z,96495.16
2022-10-22T08:38:25.603Z,96483.75
2022-10-22T08:41:24.000Z,96492.78
2022-10-22T08:44:35.670Z,96481.75
2022-10-22T08:47:47.834Z,96487.00
2022-10-22T08:50:49.784Z,96481.06
2022-10-22T08:54:12.414Z,96482.66
2022-10-22T08:57:09.166Z,96504.94
2022-10-22T09:00:52.978Z,96511.25
2022-10-22T09:04:00.503Z,96515.25
2022-10-22T09:06:59.973Z,96516.63
2022-10-22T09:09:59.680Z,96519.66
2022-10-22T09:12:56.615Z,96518.38
2022-10-22T09:16:14.060Z,96514.25
2022-10-22T09:19:50.575Z,96515.03
2022-10-22T09:23:13.439Z,96508.84
2022-10-22T09:26:15.487Z,96509.13
2022-10-22T09:29:24.483Z,96512.78
2022-10-22T09:32:22.215Z,96510.22
2022-10-22T09:35:24.403Z,96517.84
2022-10-22T09:38:27.268Z,96516.44
2022-10-22T09:41:30.036Z,96525.94
2022-10-22T09:44:26.920Z,96522.63
2022-10-22T09:47:43.157Z,96531.78
2022-10-22T09:50:59.006Z,96537.69
2022-10-22T09:54:01.894Z,96540.16
2022-10-22T09:57:05.597Z,96536.03
2022-10-22T10:00:02.464Z,96540.94
2022-10-22T10:03:00.328Z,96540.47
2022-10-22T10:06:05.850Z,96541.69
2022-10-22T10:09:06.590Z,96536.50
2022-10-22T10:12:24.706Z,96546.41
2022-10-22T10:16:09.453Z,96541.88
2022-10-22T10:19:12.111Z,96531.91
2022-10-22T10:22:44.887Z,96533.72
2022-10-22T10:26:01.516Z,96529.81
2022-10-22T10:29:13.851Z,96538.81
2022-10-22T10:32:27.743Z,96540.59
2022-10-22T10:36:06.723Z,96527.81
2022-10-22T10:39:25.768Z,96523.75
2022-10-22T10:42:41.468Z,96533.78
2022-10-22T10:46:02.355Z,96536.06
2022-10-22T10:49:23.380Z,96544.91
2022-10-22T10:53:02.319Z,96549.75
2022-10-22T10:56:23.802Z,96542.56
2022-10-22T10:59:35.937Z,96540.47
2022-10-22T11:03:02.160Z,96548.41
2022-10-22T11:06:12.172Z,96548.84
2022-10-22T11:09:27.884Z,96545.56
2022-10-22T11:12:34.158Z,96549.78
2022-10-22T11:15:39.923Z,96559.94
2022-10-22T11:18:47.633Z,96552.16
2022-10-22T11:22:17.042Z,96553.69
2022-10-22T11:25:13.821Z,96551.59
2022-10-22T11:28:37.338Z,96547.09
2022-10-22T11:31:34.513Z,96547.31
2022-10-22T11:34:41.796Z,96539.28
2022-10-22T11:37:39.782Z,96528.13
2022-10-22T11:41:02.336Z,96512.59
2022-10-22T11:44:11.794Z,96528.78
2022-10-22T11:47:24.432Z,96529.81
2022-10-22T11:50:25.477Z,96536.56
2022-10-22T11:53:39.075Z,96529.16
2022-10-22T11:56:39.414Z,96541.50
2022-10-22T11:59:47.933Z,96547.38
2022-10-22T12:02:45.925Z,96551.94
2022-10-22T12:05:45.129Z,96555.97
2022-10-22T12:08:57.033Z,96548.31
2022-10-22T12:11:55.399Z,96543.03
2022-10-22T12:14:58.300Z,96554.53
2022-10-22T12:18:05.785Z,96547.31
2022-10-22T12:21:02.926Z,96541.97
2022-10-22T12:24:02.706Z,96537.72
2022-10-22T12:26:59.585Z,96533.53
2022-10-22T12:30:01.964Z,96539.63
2022-10-22T12:33:01.856Z,96532.94
2022-10-22T12:36:04.029Z,96542.41
2022-10-22T12:39:14.832Z,96541.03
2022-10-22T12:42:16.682Z,96528.69
2022-10-22T12:45:13.506Z,96524.09
2022-10-22T12:48:28.378Z,96508.97
2022-10-22T12:51:25.557Z,96507.28
2022-10-22T12:54:30.958Z,96507.00
2022-10-22T12:57:28.147Z,96486.94
2022-10-22T13:00:32.373Z,96492.66
2022-10-22T13:03:40.161Z,96484.09
2022-10-22T13:06:37.131Z,96482.34
2022-10-22T13:09:46.405Z,96485.09
2022-10-22T13:12:49.432Z,96490.53
2022-10-22T13:15:46.332Z,96499.75
2022-10-22T13:18:44.903Z,96506.00
2022-10-22T13:21:41.729Z,96505.53
2022-10-22T13:24:49.975Z,96514.09
2022-10-22T13:27:54.763Z,96513.84
2022-10-22T13:31:11.420Z,96503.31
2022-10-22T13:34:17.317Z,96497.94
2022-10-22T13:37:14.211Z,96500.41
2022-10-22T13:40:14.449Z,96505.19
2022-10-22T13:43:11.319Z,96503.50
2022-10-22T13:46:09.552Z,96503.47
2022-10-22T13:49:06.488Z,96503.28
2022-10-22T13:52:04.141Z,96502.59
2022-10-22T13:55:01.500Z,96498.09
2022-10-22T13:58:06.370Z,96502.38
2022-10-22T14:01:08.642Z,96514.50
2022-10-22T14:04:10.560Z,96509.91
2022-10-22T14:07:17.530Z,96504.63
2022-10-22T14:10:22.563Z,96515.22
2022-10-22T14:13:21.051Z,96515.22
2022-10-22T14:16:27.528Z,96514.53
2022-10-22T14:19:24.681Z,96518.25
2022-10-22T14:22:23.627Z,96509.81
2022-10-22T14:25:24.596Z,96521.63
2022-10-22T14:28:21.483Z,96515.44
2022-10-22T14:31:18.369Z,96508.13
2022-10-22T14:34:16.719Z,96509.38
2022-10-22T14:37:20.289Z,96500.69
2022-10-22T14:40:20.396Z,96515.19
2022-10-22T14:43:25.718Z,96510.59
2022-10-22T14:46:23.022Z,96512.13
2022-10-22T14:49:19.835Z,96518.53
2022-10-22T14:52:16.689Z,96523.00
2022-10-22T14:55:15.955Z,96524.69
2022-10-22T14:58:12.984Z,96527.47
2022-10-22T15:01:10.463Z,96522.50
2022-10-22T15:04:08.612Z,96532.28
2022-10-22T15:07:05.705Z,96538.19
2022-10-22T15:10:02.928Z,96532.19
2022-10-22T15:12:59.944Z,96534.69
2022-10-22T15:15:58.005Z,96546.97
2022-10-22T15:18:54.992Z,96547.84
2022-10-22T15:21:54.967Z,96550.13
2022-10-22T15:24:53.587Z,96557.72
2022-10-22T15:27:51.827Z,96565.47
2022-10-22T15:30:59.986Z,96570.00
2022-10-22T15:34:01.532Z,96570.63
2022-10-22T15:37:02.328Z,96576.84
2022-10-22T15:40:00.605Z,96577.50
2022-10-22T15:42:57.475Z,96581.59
2022-10-22T15:46:11.260Z,96593.72
2022-10-22T15:49:08.386Z,96584.47
2022-10-22T15:52:09.781Z,96592.56
2022-10-22T15:58:13.121Z,96604.03
2022-10-22T16:01:13.880Z,96604.81
2022-10-22T16:04:11.602Z,96618.44
2022-10-22T16:07:08.429Z,96617.47
2022-10-22T16:10:07.619Z,96624.25
2022-10-22T16:13:05.023Z,96626.03
2022-10-22T16:16:07.500Z,96626.94
2022-10-22T16:19:04.363Z,96632.50
2022-10-22T16:22:02.368Z,96632.97
2022-10-22T16:24:59.279Z,96637.72
2022-10-22T16:27:56.222Z,96638.53
2022-10-22T16:30:53.045Z,96641.72
2022-10-22T16:33:50.351Z,96647.56
2022-10-22T16:36:48.868Z,96652.50
2022-10-22T16:39:46.387Z,96651.69
2022-10-22T16:42:44.368Z,96655.97
2022-10-22T16:45:50.634Z,96661.69
2022-10-22T16:48:50.779Z,96665.94
2022-10-22T16:51:47.644Z,96673.22
2022-10-22T16:54:46.587Z,96674.16
2022-10-22T16:57:43.720Z,96675.13
2022-10-22T17:00:41.156Z,96681.44
2022-10-22T17:03:38.217Z,96683.50
2022-10-22T17:06:35.091Z,96682.72
2022-10-22T17:09:32.017Z,96692.50
2022-10-22T17:12:35.082Z,96687.47
2022-10-22T17:15:32.627Z,96683.34
2022-10-22T17:18:30.185Z,96681.28
2022-10-22T17:21:27.117Z,96685.88
2022-10-22T17:24:23.972Z,96688.53
2022-10-22T17:27:20.785Z,96691.56
2022-10-22T17:30:23.435Z,96688.09
2022-10-22T17:33:23.359Z,96688.38
2022-10-22T17:36:22.210Z,96693.75
2022-10-22T17:39:19.070Z,96703.22
2022-10-22T17:42:15.935Z,96693.28
2022-10-22T17:45:12.853Z,96706.22
2022-10-22T17:48:09.726Z,96699.13
2022-10-22T17:51:12.495Z,96704.31
2022-10-22T17:54:10.191Z,96704.16
2022-10-22T17:57:07.795Z,96698.78
2022-10-22T18:00:06.231Z,96703.34
2022-10-22T18:03:03.249Z,96696.09
2022-10-22T18:06:10.548Z,96699.22
2022-10-22T18:09:13.245Z,96697.16
2022-10-22T18:12:13.813Z,96701.88
2022-10-22T18:15:10.931Z,96690.91
2022-10-22T18:18:07.773Z,96700.94
2022-10-22T18:21:05.410Z,96697.13
2022-10-22T18:24:02.478Z,96701.16
2022-10-22T18:26:59.285Z,96707.94
2022-10-22T18:29:56.104Z,96701.56
2022-10-22T18:32:52.968Z,96710.03
2022-10-22T18:35:52.129Z,96702.63
2022-10-22T18:38:55.095Z,96697.31
2022-10-22T18:41:53.144Z,96702.19
2022-10-22T18:44:51.440Z,96702.13
2022-10-22T18:47:48.477Z,96704.13
2022-10-22T18:50:47.202Z,96702.53
2022-10-22T18:53:53.731Z,96709.16
2022-10-22T18:57:03.255Z,96712.53
2022-10-22T19:00:00.239Z,96702.84
2022-10-22T19:02:57.076Z,96709.19
2022-10-22T19:05:56.323Z,96707.44
2022-10-22T19:08:54.255Z,96706.97
2022-10-22T19:11:51.399Z,96717.84
2022-10-22T19:14:48.879Z,96723.75
2022-10-22T19:17:45.826Z,96727.88
2022-10-22T19:20:46.342Z,96724.72
2022-10-22T19:26:48.677Z,96736.16
2022-10-22T19:29:46.150Z,96744.50
2022-10-22T19:32:43.334Z,96747.97
2022-10-22T19:35:40.306Z,96748.34
2022-10-22T19:38:46.277Z,96745.78
2022-10-22T19:41:43.809Z,96745.38
2022-10-22T19:44:40.673Z,96755.00
2022-10-22T19:47:37.546Z,96766.81
2022-10-22T19:50:35.149Z,96761.72
2022-10-22T19:53:33.583Z,96775.41
2022-10-22T19:56:31.793Z,96778.50
2022-10-22T19:59:31.395Z,96768.59
2022-10-22T20:02:29.112Z,96777.09
2022-10-22T20:05:26.055Z,96776.91
2022-10-22T20:08:22.884Z,96785.06
2022-10-22T20:11:26.563Z,96788.22
2022-10-22T20:14:23.497Z,96785.75
2022-10-22T20:17:20.342Z,96790.38
2022-10-22T20:20:17.206Z,96793.66
2022-10-22T20:23:14.222Z,96790.38
2022-10-22T20:26:12.667Z,96786.88
2022-10-22T20:29:12.955Z,96784.69
2022-10-22T20:32:09.783Z,96790.03
2022-10-22T20:35:07.752Z,96779.25
2022-10-22T20:38:07.035Z,96775.66
2022-10-22T20:41:07.831Z,96780.06
2022-10-22T20:44:04.680Z,96778.56
2022-10-22T20:47:01.757Z,96771.91
2022-10-22T20:49:58.609Z,96773.09
2022-10-22T20:52:55.477Z,96768.31
2022-10-22T20:55:56.802Z,96777.31
2022-10-22T20:59:04.034Z,96773.28
2022-10-22T21:02:01.135Z,96768.31
2022-10-22T21:04:57.989Z,96767.16
2022-10-22T21:07:54.820Z,96775.25
2022-10-22T21:10:51.660Z,96769.97
2022-10-22T21:13:48.880Z,96778.59
2022-10-22T21:16:51.861Z,96781.75
2022-10-22T21:19:48.694Z,96782.59
2022-10-22T21:22:45.872Z,96783.91
2022-10-22T21:25:56.366Z,96783.38
2022-10-22T21:28:53.283Z,96790.25
2022-10-22T21:31:50.199Z,96794.03
2022-10-22T21:34:47.016Z,96790.16
2022-10-22T21:37:44.305Z,96803.22
2022-10-22T21:40:41.270Z,96800.69
2022-10-22T21:43:40.059Z,96803.81
2022-10-22T21:46:37.713Z,96797.66
2022-10-22T21:49:34.541Z,96794.25
2022-10-22T21:52:31.392Z,96797.09
2022-10-22T21:55:28.214Z,96795.00
2022-10-22T21:58:25.037Z,96800.09
2022-10-22T22:01:22.777Z,96804.75
2022-10-22T22:04:19.630Z,96794.56
2022-10-22T22:07:16.472Z,96797.69
2022-10-22T22:10:13.589Z,96803.03
2022-10-22T22:13:10.390Z,96792.53
2022-10-22T22:16:11.732Z,96796.78
2022-10-22T22:19:10.063Z,96782.34
2022-10-22T22:22:07.071Z,96793.97
2022-10-22T22:25:04.372Z,96793.16
2022-10-22T22:28:01.210Z,96781.34
2022-10-22T22:30:59.630Z,96779.53
2022-10-22T22:34:03.195Z,96777.59
2022-10-22T22:37:00.007Z,96784.72
2022-10-22T22:39:56.923Z,96773.31
2022-10-22T22:42:53.719Z,96782.34
2022-10-22T22:46:11.518Z,96767.63
2022-10-22T22:49:08.982Z,96763.91
2022-10-22T22:52:05.896Z,96764.56
2022-10-22T22:55:02.845Z,96762.13
2022-10-22T22:57:59.655Z,96756.69
2022-10-22T23:00:56.562Z,96747.91
2022-10-22T23:04:16.391Z,96756.75
2022-10-22T23:07:13.476Z,96757.06
2022-10-22T23:10:10.391Z,96750.66
2022-10-22T23:13:07.207Z,96757.13
2022-10-22T23:16:12.359Z,96760.25
2022-10-22T23:19:10.159Z,96755.31
2022-10-22T23:22:07.034Z,96749.28
2022-10-22T23:25:04.095Z,96746.41
2022-10-22T23:28:01.004Z,96747.41
2022-10-22T23:30:57.928Z,96749.28
2022-10-22T23:33:54.784Z,96748.41
2022-10-22T23:36:52.868Z,96749.41
2022-10-22T23:39:49.925Z,96752.16
2022-10-22T23:42:46.817Z,96740.56
2022-10-22T23:45:43.657Z,96746.31
2022-10-22T23:48:40.624Z,96744.28
2022-10-22T23:51:39.193Z,96743.06
2022-10-22T23:54:36.051Z,96758.50
2022-10-22T23:57:32.895Z,96748.28
